Time;durP1;ratioP1;P1;durP2;ratioP2;P2;SDS_P1;SDS_P2;PMS_P1;PMS_P2;Temp;Humidity;BMP_temperature;BMP_pressure;BME280_temperature;BME280_humidity;BME280_pressure;Samples;Min_cycle;Max_cycle;Signal;HPM_P1;HPM_P2
2022/03/19 00:00:05;;;;;;;10.95;4.15;;;;;;;22.19;43.53;101426.47;4181477;28;20083;-66
2022/03/19 00:02:06;;;;;;;13.35;4.40;;;;;;;22.19;43.30;101429.25;4198135;28;20070;-66
2022/03/19 00:04:08;;;;;;;11.05;4.20;;;;;;;22.16;43.37;101418.63;4199033;28;20538;-66
2022/03/19 00:06:09;;;;;;;14.43;4.45;;;;;;;22.19;43.61;101418.94;4198676;28;20506;-66
2022/03/19 00:08:11;;;;;;;14.20;4.47;;;;;;;22.20;43.28;101419.75;4198980;28;20036;-66
2022/03/19 00:10:15;;;;;;;9.27;3.90;;;;;;;22.19;43.54;101406.94;4198663;28;20052;-66
2022/03/19 00:12:16;;;;;;;13.65;4.55;;;;;;;22.19;43.44;101406.94;4199192;28;20032;-66
2022/03/19 00:14:18;;;;;;;14.85;4.85;;;;;;;22.20;43.67;101400.25;4198688;28;20166;-66
2022/03/19 00:16:22;;;;;;;7.78;4.45;;;;;;;22.19;43.67;101391.06;4198893;28;20037;-66
2022/03/19 00:18:24;;;;;;;9.23;4.18;;;;;;;22.14;43.71;101388.28;4198811;28;20429;-66
2022/03/19 00:20:26;;;;;;;8.23;4.63;;;;;;;22.19;43.82;101391.06;4198682;28;20040;-66
2022/03/19 00:22:27;;;;;;;5.82;3.70;;;;;;;22.19;43.61;101399.41;4198290;28;20040;-66
2022/03/19 00:24:29;;;;;;;6.05;3.40;;;;;;;22.19;43.68;101413.34;4199285;28;20089;-66
2022/03/19 00:26:30;;;;;;;9.18;3.90;;;;;;;22.19;43.75;101409.72;4198626;28;20036;-66
2022/03/19 00:28:32;;;;;;;4.43;3.38;;;;;;;22.20;43.74;101403.03;4198349;28;20040;-66
2022/03/19 00:30:33;;;;;;;9.07;3.63;;;;;;;22.18;43.57;101400.53;4198601;28;20048;-66
2022/03/19 00:32:35;;;;;;;9.00;3.92;;;;;;;22.19;43.95;101402.19;4198443;28;20076;-65
2022/03/19 00:34:36;;;;;;;4.93;3.83;;;;;;;22.13;43.86;101389.38;4198287;28;20097;-66
2022/03/19 00:36:42;;;;;;;5.43;3.10;;;;;;;22.18;43.77;101394.97;4198558;28;20087;-66
2022/03/19 00:38:43;;;;;;;5.30;3.42;;;;;;;22.19;43.94;101398.59;4198216;28;20102;-66
2022/03/19 00:40:46;;;;;;;5.30;3.80;;;;;;;22.19;43.80;101396.63;4198404;28;20032;-66
2022/03/19 00:42:50;;;;;;;8.93;4.18;;;;;;;22.20;43.71;101387.13;4197192;28;20041;-66
2022/03/19 00:44:51;;;;;;;7.90;4.40;;;;;;;22.21;43.38;101387.97;4198437;28;20036;-66
2022/03/19 00:46:53;;;;;;;12.20;4.40;;;;;;;22.19;43.14;101370.72;4198837;28;20300;-66
2022/03/19 00:48:54;;;;;;;9.25;4.20;;;;;;;22.21;43.36;101383.22;4198673;28;20016;-66
2022/03/19 00:50:56;;;;;;;11.07;3.67;;;;;;;22.20;43.65;101369.59;4197919;28;20032;-65
2022/03/19 00:52:57;;;;;;;9.38;4.10;;;;;;;22.21;43.82;101374.88;4197084;28;20090;-65
2022/03/19 00:54:59;;;;;;;5.35;4.15;;;;;;;22.21;43.85;101371.25;4197705;28;20415;-66
2022/03/19 00:57:00;;;;;;;5.35;3.97;;;;;;;22.18;43.76;101364.28;4198701;28;20029;-66
2022/03/19 00:59:02;;;;;;;6.35;3.90;;;;;;;22.18;43.58;101355.94;4199187;28;20045;-66
2022/03/19 01:01:04;;;;;;;7.05;3.60;;;;;;;22.18;43.51;101350.34;4198089;28;20037;-65
2022/03/19 01:03:06;;;;;;;9.40;3.60;;;;;;;22.19;43.80;101351.19;4197493;28;20044;-66
2022/03/19 01:05:09;;;;;;;6.70;3.63;;;;;;;22.19;43.69;101351.19;4198186;28;20044;-67
2022/03/19 01:07:10;;;;;;;6.55;4.20;;;;;;;22.20;43.58;101344.50;4197847;28;20045;-67
2022/03/19 01:09:11;;;;;;;8.68;3.80;;;;;;;22.19;43.36;101332.50;4197618;28;20102;-66
2022/03/19 01:11:13;;;;;;;7.32;4.28;;;;;;;22.20;43.61;101336.97;4197753;28;20041;-66
2022/03/19 01:13:14;;;;;;;6.10;3.67;;;;;;;22.20;43.65;101325.81;4197828;28;20036;-66
2022/03/19 01:15:17;;;;;;;5.57;3.33;;;;;;;22.16;43.65;101316.34;4196902;28;20037;-66
2022/03/19 01:17:18;;;;;;;7.68;3.28;;;;;;;22.20;43.56;101325.81;4197958;28;20040;-67
2022/03/19 01:19:52;;;;;;;7.85;3.83;;;;;;;22.20;43.73;101319.41;4198475;28;20024;-66
2022/03/19 01:21:41;;;;;;;7.47;4.10;;;;;;;22.20;43.23;101311.88;4197810;28;20472;-66
2022/03/19 01:23:42;;;;;;;7.85;3.83;;;;;;;22.21;43.47;101312.72;4197978;28;20471;-67
2022/03/19 01:25:43;;;;;;;5.43;3.70;;;;;;;22.20;43.33;101308.25;4197585;28;20106;-66
2022/03/19 01:27:47;;;;;;;5.65;3.33;;;;;;;22.20;43.80;101319.41;4198105;28;20052;-66
2022/03/19 01:29:48;;;;;;;6.38;3.63;;;;;;;22.20;43.60;101323.03;4196699;28;20454;-64
2022/03/19 01:31:50;;;;;;;8.38;3.88;;;;;;;22.20;42.84;101314.66;4197540;28;20066;-67
2022/03/19 01:33:54;;;;;;;20.85;6.43;;;;;;;22.22;42.61;101315.25;4197192;28;20105;-68
2022/03/19 01:35:56;;;;;;;20.70;5.03;;;;;;;22.21;42.38;101304.34;4199286;28;20040;-68
2022/03/19 01:37:57;;;;;;;17.67;5.40;;;;;;;22.20;43.13;101303.50;4197266;28;20074;-67
2022/03/19 01:39:59;;;;;;;16.15;4.60;;;;;;;22.17;43.56;101303.22;4197338;28;20107;-67
2022/03/19 01:42:00;;;;;;;11.65;4.40;;;;;;;22.16;43.39;101299.63;4197038;28;20483;-67
2022/03/19 01:44:01;;;;;;;9.63;4.63;;;;;;;22.14;43.88;101287.09;4197204;28;20044;-66
2022/03/19 01:46:04;;;;;;;16.85;4.32;;;;;;;22.14;43.74;101287.94;4197416;28;20569;-65
2022/03/19 01:48:08;;;;;;;13.75;4.40;;;;;;;22.10;44.08;101270.06;4179896;28;20045;-64
2022/03/19 01:50:11;;;;;;;12.53;4.40;;;;;;;22.12;44.14;101272.59;4197042;28;20098;-65
2022/03/19 01:52:13;;;;;;;12.25;4.50;;;;;;;22.11;44.15;101260.56;4179788;28;20045;-64
2022/03/19 01:54:15;;;;;;;11.77;4.55;;;;;;;22.07;43.96;101249.16;4196885;28;20044;-65
2022/03/19 01:56:17;;;;;;;17.67;4.00;;;;;;;22.10;44.10;101235.78;4196993;28;20040;-64
2022/03/19 01:58:18;;;;;;;11.38;4.18;;;;;;;22.11;44.43;101220.72;4197472;28;20040;-64
2022/03/19 02:00:22;;;;;;;11.18;3.70;;;;;;;21.93;44.60;101177.56;4195581;28;20040;-65
2022/03/19 02:02:30;;;;;;;9.25;3.63;;;;;;;22.11;44.46;101195.63;4197121;28;20498;-64
2022/03/19 02:04:33;;;;;;;9.95;3.80;;;;;;;21.95;44.59;101150.28;4197264;28;20033;-64
2022/03/19 02:06:36;;;;;;;13.25;3.88;;;;;;;22.11;44.17;101165.81;4195657;28;20048;-65
2022/03/19 02:08:39;;;;;;;11.00;3.78;;;;;;;22.10;44.39;101158.56;4197421;28;20074;-64
2022/03/19 02:10:41;;;;;;;4.28;3.70;;;;;;;22.07;44.56;101153.56;4196137;28;20106;-66
2022/03/19 02:12:46;;;;;;;19.02;4.30;;;;;;;22.09;44.35;101162.50;4212558;28;20040;-65
2022/03/19 02:14:48;;;;;;;11.07;4.15;;;;;;;22.08;44.51;101197.03;4213688;28;20036;-66
2022/03/19 02:16:55;;;;;;;10.77;4.05;;;;;;;22.07;44.64;101262.25;4213786;28;20048;-65
2022/03/19 02:19:00;;;;;;;5.95;3.92;;;;;;;22.11;44.94;101294.03;4213780;28;20089;-66
2022/03/19 02:21:02;;;;;;;7.32;3.60;;;;;;;22.10;44.70;101286.78;4213672;28;20044;-65
2022/03/19 02:25:35;;;;;;;7.38;4.15;;;;;;;22.10;45.02;101325.81;4215325;28;20086;-65
2022/03/19 02:27:37;;;;;;;7.15;4.00;;;;;;;21.86;45.16;101286.53;4209627;28;20040;-65
2022/03/19 02:29:38;;;;;;;10.32;4.25;;;;;;;22.10;45.02;101324.97;4196807;28;20044;-65
2022/03/19 02:31:41;;;;;;;5.18;3.50;;;;;;;22.09;44.90;101324.13;4196212;28;20040;-65
2022/03/19 02:33:43;;;;;;;9.80;4.00;;;;;;;22.10;44.66;101305.47;4197030;28;20036;-65
2022/03/19 02:35:47;;;;;;;7.88;5.05;;;;;;;22.08;44.97;101305.72;4197019;28;20037;-65
2022/03/19 02:37:50;;;;;;;9.48;5.80;;;;;;;22.10;44.70;101330.53;4197473;28;20032;-65
2022/03/19 02:39:51;;;;;;;10.55;5.90;;;;;;;22.11;44.77;101337.78;4196643;28;20048;-66
2022/03/19 02:41:53;;;;;;;6.60;4.97;;;;;;;22.08;45.03;101334.44;4197765;28;20020;-65
2022/03/19 02:43:57;;;;;;;7.90;4.80;;;;;;;22.06;45.10;101325.50;4199005;28;20465;-65
2022/03/19 02:45:58;;;;;;;6.97;4.68;;;;;;;22.09;45.10;101335.28;4197463;28;20036;-65
2022/03/19 02:48:00;;;;;;;7.47;4.30;;;;;;;22.08;44.60;101326.09;4197411;28;20071;-65
2022/03/19 02:50:01;;;;;;;6.88;4.05;;;;;;;22.08;44.90;101330.81;4197012;28;20109;-65
2022/03/19 02:52:04;;;;;;;6.55;4.13;;;;;;;22.07;44.79;101343.06;4195943;28;20087;-64
2022/03/19 02:54:08;;;;;;;5.05;3.60;;;;;;;22.06;45.11;101355.34;4196380;28;20036;-64
2022/03/19 02:56:09;;;;;;;6.53;4.15;;;;;;;22.07;44.76;101354.22;4196503;28;20048;-64
2022/03/19 02:58:11;;;;;;;6.22;3.90;;;;;;;22.06;45.18;101363.69;4196713;28;20454;-65
2022/03/19 03:00:13;;;;;;;4.93;3.47;;;;;;;22.07;44.90;101370.94;4197435;28;20024;-66
2022/03/19 03:02:15;;;;;;;7.07;4.07;;;;;;;22.07;45.06;101379.31;4196465;28;20036;-66
2022/03/19 03:04:16;;;;;;;6.88;3.80;;;;;;;22.04;45.13;101380.72;4202695;28;20039;-66
2022/03/19 03:06:19;;;;;;;5.25;3.78;;;;;;;22.06;44.76;101386.81;4213537;28;20028;-65
2022/03/19 03:08:25;;;;;;;4.43;3.50;;;;;;;22.05;45.07;101395.47;4213984;28;20088;-65
2022/03/19 03:10:31;;;;;;;5.53;3.42;;;;;;;22.06;45.05;101394.34;4213401;28;20109;-66
2022/03/19 03:12:33;;;;;;;8.50;4.10;;;;;;;22.05;44.90;101390.75;4213194;28;20040;-66
2022/03/19 03:14:34;;;;;;;6.05;3.58;;;;;;;22.06;45.19;101383.22;4213738;28;20086;-66
2022/03/19 03:16:36;;;;;;;8.68;3.85;;;;;;;22.06;45.49;101381.25;4213466;28;20040;-55
2022/03/19 03:18:38;;;;;;;5.13;3.25;;;;;;;22.10;45.32;101361.19;4198039;28;20114;-54
2022/03/19 03:20:45;;;;;;;6.40;3.85;;;;;;;22.10;45.04;101334.16;4216278;28;20180;-51
2022/03/19 03:22:46;;;;;;;15.05;3.20;;;;;;;22.11;44.89;101327.47;4216335;28;20032;-55
2022/03/19 03:24:48;;;;;;;3.40;2.67;;;;;;;22.17;45.21;101331.94;4198810;28;20050;-51
2022/03/19 03:26:49;;;;;;;7.70;3.05;;;;;;;22.22;45.01;101323.59;4216488;28;20036;-54
2022/03/19 03:28:51;;;;;;;6.95;3.05;;;;;;;22.29;44.89;101326.09;4198448;28;20053;-52
2022/03/19 03:30:53;;;;;;;3.72;2.83;;;;;;;22.30;44.64;101336.94;4216427;28;20061;-52
2022/03/19 03:32:55;;;;;;;3.83;2.90;;;;;;;22.38;44.33;101366.22;4215563;28;20028;-53
2022/03/19 03:34:56;;;;;;;5.28;2.65;;;;;;;22.42;44.58;101377.66;4216927;28;20032;-55
2022/03/19 03:36:58;;;;;;;4.40;3.00;;;;;;;22.45;44.53;101377.06;4215665;28;20429;-54
2022/03/19 03:38:59;;;;;;;4.68;2.80;;;;;;;22.48;44.38;101371.78;4215974;28;20036;-52
2022/03/19 03:41:01;;;;;;;4.28;2.95;;;;;;;22.50;44.03;101357.56;4215742;28;20032;-54
2022/03/19 03:43:05;;;;;;;3.95;2.45;;;;;;;22.51;44.41;101354.50;4215437;28;20040;-55
2022/03/19 03:45:07;;;;;;;3.63;2.60;;;;;;;22.55;43.88;101349.19;4216333;28;20105;-54
2022/03/19 03:47:09;;;;;;;4.70;2.80;;;;;;;22.47;44.10;101331.06;4216561;28;20039;-52
2022/03/19 03:49:10;;;;;;;6.68;3.13;;;;;;;22.43;44.27;101340.28;4204098;28;20064;-66
2022/03/19 03:51:13;;;;;;;6.97;2.47;;;;;;;22.28;44.33;101333.63;4198856;28;20106;-66
2022/03/19 03:53:14;;;;;;;5.45;2.60;;;;;;;22.18;44.56;101361.50;4198987;28;20029;-66
2022/03/19 03:55:19;;;;;;;8.18;2.80;;;;;;;22.16;44.43;101371.25;4198831;28;20442;-66
2022/03/19 03:57:23;;;;;;;5.10;2.63;;;;;;;22.13;44.78;101361.50;4198986;28;20036;-64
2022/03/19 03:59:25;;;;;;;5.45;3.10;;;;;;;22.10;44.91;101342.53;4199779;28;20423;-67
2022/03/19 04:01:26;;;;;;;6.78;2.60;;;;;;;22.12;44.82;101329.16;4198429;28;20089;-67
2022/03/19 04:03:27;;;;;;;4.68;2.60;;;;;;;22.13;44.53;101336.44;4199742;28;20446;-66
2022/03/19 04:05:29;;;;;;;8.20;3.45;;;;;;;22.13;44.86;101346.72;4198810;28;20431;-66
2022/03/19 04:07:33;;;;;;;5.47;2.75;;;;;;;22.15;44.42;101345.34;4199304;28;20086;-67
2022/03/19 04:09:35;;;;;;;4.43;2.40;;;;;;;22.15;44.42;101334.19;4199411;28;20102;-66
2022/03/19 04:11:37;;;;;;;3.25;2.40;;;;;;;22.16;44.75;101348.94;4198569;28;20406;-66
2022/03/19 04:13:38;;;;;;;3.80;2.50;;;;;;;22.16;44.45;101347.00;4198643;28;20422;-66
2022/03/19 04:15:39;;;;;;;4.55;2.72;;;;;;;22.14;44.54;101338.09;4198912;28;20066;-65
2022/03/19 04:17:41;;;;;;;5.93;2.88;;;;;;;22.16;44.62;101335.00;4198494;28;20037;-65
2022/03/19 04:19:42;;;;;;;14.80;2.95;;;;;;;22.17;44.29;101329.16;4198525;28;20044;-71
2022/03/19 04:21:43;;;;;;;4.72;2.53;;;;;;;22.17;44.29;101320.78;4198602;28;20110;-69
2022/03/19 04:23:46;;;;;;;12.20;2.75;;;;;;;22.19;44.74;101326.94;4198839;28;20044;-71
2022/03/19 04:25:47;;;;;;;6.22;2.90;;;;;;;22.21;44.59;101326.66;4198877;28;20090;-70
2022/03/19 04:27:53;;;;;;;5.05;2.67;;;;;;;22.23;44.23;101321.66;4199000;28;20130;-75
2022/03/19 04:29:56;;;;;;;6.22;2.10;;;;;;;22.23;44.45;101308.53;4200267;28;20476;-77
2022/03/19 04:31:57;;;;;;;8.73;2.67;;;;;;;22.25;43.94;101303.50;4181929;28;20550;-71
2022/03/19 04:33:59;;;;;;;6.68;2.00;;;;;;;22.28;44.15;101308.53;4199297;28;20046;-73
2022/03/19 04:38:26;;;;;;;10.93;2.97;;;;;;;22.30;44.27;101292.34;4202541;28;20062;-74
2022/03/19 04:40:31;;;;;;;6.63;2.28;;;;;;;22.31;44.29;101288.47;4183303;28;20123;-72
2022/03/19 04:42:33;;;;;;;8.30;2.38;;;;;;;22.33;43.75;101286.22;4199043;28;20036;-71
2022/03/19 04:44:34;;;;;;;9.02;2.95;;;;;;;22.35;44.18;101271.16;4198620;28;20032;-73
2022/03/19 04:46:36;;;;;;;5.90;3.00;;;;;;;22.35;43.72;101260.00;4199194;28;20032;-73
2022/03/19 04:48:42;;;;;;;9.07;2.60;;;;;;;22.38;44.00;101248.28;4198209;28;20074;-72
2022/03/19 04:50:46;;;;;;;8.07;2.88;;;;;;;22.39;43.82;101233.22;4199301;28;20074;-73
2022/03/19 04:52:51;;;;;;;176.95;12.70;;;;;;;22.39;44.19;101224.84;4214930;28;20089;-67
2022/03/19 04:54:57;;;;;;;8.40;2.80;;;;;;;22.40;43.82;101234.88;4202615;28;20036;-68
2022/03/19 04:56:58;;;;;;;7.72;2.83;;;;;;;22.40;43.64;101246.03;4199569;28;20040;-68
2022/03/19 04:59:03;;;;;;;5.40;2.45;;;;;;;22.41;43.51;101242.16;4199246;28;20044;-71
2022/03/19 05:01:04;;;;;;;5.45;2.38;;;;;;;22.43;43.60;101242.69;4199296;28;20377;-69
2022/03/19 05:03:07;;;;;;;11.70;2.65;;;;;;;22.44;43.27;101239.59;4201369;28;20079;-71
2022/03/19 05:05:12;;;;;;;4.43;2.40;;;;;;;22.43;43.75;101229.56;4187896;28;20075;-71
2022/03/19 05:07:13;;;;;;;8.80;2.30;;;;;;;22.46;43.48;101231.81;4204423;28;20051;-68
2022/03/19 05:11:35;;;;;;;4.72;2.50;;;;;;;22.48;43.50;101237.09;4200272;28;20441;-69
2022/03/19 05:13:36;;;;;;;5.85;2.50;;;;;;;22.48;43.62;101234.31;4199174;28;20032;-67
2022/03/19 05:15:38;;;;;;;5.03;2.80;;;;;;;22.49;43.35;101233.16;4199749;28;20024;-66
2022/03/19 05:17:41;;;;;;;15.32;2.58;;;;;;;22.49;43.54;101228.44;4200150;28;20036;-71
2022/03/19 05:19:42;;;;;;;6.00;2.00;;;;;;;22.50;43.30;101229.28;4202013;28;20038;-75
2022/03/19 05:21:45;;;;;;;23.75;3.10;;;;;;;22.52;43.40;101232.63;4202164;28;20036;-69
2022/03/19 05:23:47;;;;;;;11.48;2.20;;;;;;;22.53;43.62;101239.84;4208527;28;20140;-69
2022/03/19 05:25:49;;;;;;;7.82;2.17;;;;;;;22.53;43.35;101217.53;4198502;28;20181;-68
2022/03/19 05:27:52;;;;;;;7.53;2.40;;;;;;;22.53;43.38;101215.59;4200215;28;20109;-72
2022/03/19 05:29:54;;;;;;;9.05;1.95;;;;;;;22.51;43.14;101212.25;4202343;28;20044;-69
2022/03/19 05:31:55;;;;;;;10.80;2.33;;;;;;;22.51;43.46;101206.69;4199974;28;20040;-73
2022/03/19 05:36:16;;;;;;;12.00;2.47;;;;;;;22.50;43.23;101202.22;4199686;28;20058;-72
2022/03/19 05:38:17;;;;;;;8.23;2.40;;;;;;;22.52;43.31;101201.94;4198156;28;20090;-72
2022/03/19 05:40:19;;;;;;;10.80;2.75;;;;;;;22.51;43.47;101194.69;4198200;28;20553;-72
2022/03/19 05:42:21;;;;;;;7.50;2.33;;;;;;;22.51;43.37;101191.91;4198907;28;20044;-70
2022/03/19 05:44:25;;;;;;;6.03;2.17;;;;;;;22.51;43.32;101189.94;4197846;28;20083;-71
2022/03/19 05:46:26;;;;;;;5.68;2.55;;;;;;;22.53;43.61;101184.06;4170133;28;20029;-73
2022/03/19 05:48:27;;;;;;;8.32;2.20;;;;;;;22.52;43.39;101188.81;4198853;28;20442;-72
2022/03/19 05:50:29;;;;;;;8.95;2.40;;;;;;;22.50;43.38;101179.09;4198816;28;20098;-71
2022/03/19 05:52:30;;;;;;;7.80;2.38;;;;;;;22.54;43.34;101182.94;4198996;28;20040;-73
2022/03/19 05:54:33;;;;;;;10.48;2.40;;;;;;;22.52;43.21;101182.41;4198783;28;20582;-72
2022/03/19 05:56:34;;;;;;;3.47;2.00;;;;;;;22.53;43.17;101175.72;4198488;28;20036;-72
2022/03/19 05:58:36;;;;;;;3.67;2.20;;;;;;;22.54;43.37;101180.16;4198842;28;20529;-70
2022/03/19 06:00:37;;;;;;;8.02;2.05;;;;;;;22.52;43.52;101182.41;4198994;28;20086;-72
2022/03/19 06:02:41;;;;;;;4.75;2.00;;;;;;;22.55;43.67;101179.06;4197935;28;20032;-68
2022/03/19 06:04:46;;;;;;;5.53;2.35;;;;;;;22.55;43.73;101170.69;4201585;28;20468;-69
2022/03/19 06:06:47;;;;;;;5.03;2.57;;;;;;;22.55;43.14;101160.38;4188646;28;20102;-71
2022/03/19 06:08:48;;;;;;;9.20;4.72;;;;;;;22.56;42.92;101158.41;4189759;28;20265;-69
2022/03/19 06:10:53;;;;;;;10.77;4.80;;;;;;;22.56;43.05;101161.19;4185092;28;20059;-70
2022/03/19 06:12:54;;;;;;;8.47;4.03;;;;;;;22.57;43.37;101182.38;4194689;28;20044;-71
2022/03/19 06:14:58;;;;;;;12.70;5.47;;;;;;;22.57;43.27;101176.81;4180154;28;20045;-71
2022/03/19 06:16:59;;;;;;;7.60;5.00;;;;;;;22.56;43.07;101172.38;4198677;28;20083;-71
2022/03/19 06:19:01;;;;;;;11.98;4.72;;;;;;;22.55;43.13;101159.53;4198658;28;20041;-72
2022/03/19 06:21:03;;;;;;;8.70;4.75;;;;;;;22.57;43.22;101168.44;4200329;28;20040;-70
2022/03/19 06:23:05;;;;;;;7.53;5.03;;;;;;;22.56;43.12;101169.56;4200606;28;20041;-71
2022/03/19 06:25:07;;;;;;;8.60;4.97;;;;;;;22.56;43.06;101177.94;4199515;28;20051;-70
2022/03/19 06:27:08;;;;;;;8.32;4.80;;;;;;;22.55;43.31;101170.69;4197887;28;20500;-68
2022/03/19 06:29:09;;;;;;;9.82;4.82;;;;;;;22.53;43.02;101172.91;4197824;28;20106;-71
2022/03/19 06:31:11;;;;;;;9.38;5.45;;;;;;;22.57;43.42;101171.22;4196721;28;20448;-71
2022/03/19 06:33:15;;;;;;;10.15;5.65;;;;;;;22.56;43.29;101177.94;4198113;28;20074;-71
2022/03/19 06:37:19;;;;;;;9.38;5.40;;;;;;;22.55;43.03;101177.09;4197956;28;20091;-71
2022/03/19 06:37:38;;;;;;;7.20;4.45;;;;;;;22.57;43.29;101169.28;4198553;28;20041;-71
2022/03/19 06:39:40;;;;;;;7.07;5.13;;;;;;;22.56;43.29;101161.19;4198236;28;20047;-70
2022/03/19 06:41:44;;;;;;;8.70;5.10;;;;;;;22.57;43.28;101163.69;4197260;28;20048;-69
2022/03/19 06:43:46;;;;;;;10.52;4.75;;;;;;;22.57;42.82;101165.66;4198127;28;20037;-70
2022/03/19 06:45:47;;;;;;;17.75;5.32;;;;;;;22.57;43.10;101162.88;4197278;28;20063;-70
2022/03/19 06:47:48;;;;;;;11.98;5.53;;;;;;;22.56;42.72;101167.63;4196315;28;20075;-71
2022/03/19 06:49:51;;;;;;;10.75;4.30;;;;;;;22.58;43.06;101167.31;4198611;28;20037;-70
2022/03/19 06:51:52;;;;;;;7.40;4.07;;;;;;;22.33;42.82;101118.94;4197441;28;20036;-69
2022/03/19 06:53:54;;;;;;;9.38;5.07;;;;;;;22.57;43.40;101154.50;4200685;28;20094;-70
2022/03/19 06:55:55;;;;;;;10.63;4.80;;;;;;;22.58;42.80;101150.56;4201106;28;20094;-70
2022/03/19 06:57:57;;;;;;;12.32;5.38;;;;;;;22.60;42.92;101147.53;4196034;28;20103;-71
2022/03/19 06:59:58;;;;;;;8.93;4.63;;;;;;;22.59;42.71;101146.69;4180391;28;20086;-71
2022/03/19 07:02:00;;;;;;;8.32;4.53;;;;;;;22.58;43.05;101142.22;4201935;28;20052;-71
2022/03/19 07:04:02;;;;;;;7.68;4.30;;;;;;;22.59;42.80;101135.53;4202145;28;20036;-70
2022/03/19 07:06:04;;;;;;;9.57;4.88;;;;;;;22.59;42.70;101143.91;4201857;28;20028;-71
2022/03/19 07:08:08;;;;;;;6.32;4.28;;;;;;;22.58;42.87;101140.25;4205733;28;20040;-70
2022/03/19 07:10:10;;;;;;;9.30;4.20;;;;;;;22.59;42.76;101143.91;4202930;28;20086;-68
2022/03/19 07:12:11;;;;;;;7.18;5.10;;;;;;;22.60;43.07;101151.16;4202947;28;20044;-71
2022/03/19 07:14:12;;;;;;;8.73;4.53;;;;;;;22.60;42.86;101137.19;4207358;28;20033;-71
2022/03/19 07:16:16;;;;;;;9.85;4.15;;;;;;;22.61;42.69;101136.06;4199465;28;20037;-70
2022/03/19 07:18:20;;;;;;;10.55;4.07;;;;;;;22.62;42.56;101136.91;4201374;28;20040;-71
2022/03/19 07:20:22;;;;;;;6.80;4.53;;;;;;;22.62;42.50;101134.09;4200935;28;20040;-69
2022/03/19 07:22:24;;;;;;;5.88;4.05;;;;;;;22.61;42.57;101124.09;4200344;28;20041;-70
2022/03/19 07:24:25;;;;;;;11.18;5.10;;;;;;;22.62;42.39;101125.75;4202945;28;20369;-70
2022/03/19 07:26:27;;;;;;;10.05;4.20;;;;;;;22.60;42.68;101126.03;4201270;28;20082;-71
2022/03/19 07:28:28;;;;;;;6.45;4.30;;;;;;;22.61;42.49;101119.34;4184087;28;20508;-71
2022/03/19 07:30:30;;;;;;;6.47;4.20;;;;;;;22.61;42.55;101108.19;4201505;28;20036;-72
2022/03/19 07:32:34;;;;;;;6.82;4.50;;;;;;;22.62;42.42;101115.41;4200098;28;20041;-71
2022/03/19 07:34:39;;;;;;;8.82;4.40;;;;;;;22.61;42.77;101113.75;4203431;28;20041;-70
2022/03/19 07:36:41;;;;;;;7.53;4.72;;;;;;;22.62;42.74;101111.78;4201375;28;20032;-71
2022/03/19 07:38:42;;;;;;;8.25;4.43;;;;;;;22.61;42.35;101110.97;4193148;28;20079;-70
2022/03/19 07:43:04;;;;;;;7.20;4.13;;;;;;;22.63;42.41;101091.97;4201574;28;20070;-70
2022/03/19 07:45:09;;;;;;;7.20;4.03;;;;;;;22.60;42.51;101089.78;4201002;28;20041;-69
2022/03/19 07:47:10;;;;;;;6.43;3.70;;;;;;;22.62;42.27;101086.69;4200740;28;20098;-71
2022/03/19 07:49:14;;;;;;;5.22;3.92;;;;;;;22.63;42.20;101086.41;4200376;28;20044;-72
2022/03/19 07:51:15;;;;;;;6.28;4.07;;;;;;;22.63;42.41;101082.78;4200556;28;20032;-71
2022/03/19 07:53:17;;;;;;;8.02;4.97;;;;;;;22.62;42.26;101081.94;4201156;28;20102;-71
2022/03/19 07:55:22;;;;;;;5.40;3.67;;;;;;;22.61;42.12;101080.28;4200314;28;20041;-70
2022/03/19 07:57:23;;;;;;;6.15;4.50;;;;;;;22.61;42.36;101074.72;4200295;28;20086;-69
2022/03/19 07:59:25;;;;;;;6.38;4.00;;;;;;;22.60;42.12;101067.47;4182572;28;20032;-71
2022/03/19 08:01:26;;;;;;;6.50;4.00;;;;;;;22.63;42.17;101083.59;4200413;28;20044;-70
2022/03/19 08:03:31;;;;;;;7.15;4.40;;;;;;;22.63;42.09;101083.59;4200884;28;20040;-71
2022/03/19 08:05:32;;;;;;;5.50;4.13;;;;;;;22.61;42.22;101068.31;4200356;28;20476;-71
2022/03/19 08:07:34;;;;;;;6.30;3.97;;;;;;;22.62;42.46;101070.78;4200734;28;20323;-71
2022/03/19 08:09:42;;;;;;;4.88;3.47;;;;;;;22.62;42.40;101075.53;4182350;28;20047;-71
2022/03/19 08:11:43;;;;;;;6.10;3.53;;;;;;;22.60;42.23;101077.78;4205482;28;20048;-71
2022/03/19 08:13:45;;;;;;;7.97;3.53;;;;;;;22.63;42.31;101072.44;4207916;28;20097;-70
2022/03/19 08:15:52;;;;;;;7.10;3.92;;;;;;;22.62;42.27;101068.00;4199755;28;20090;-70
2022/03/19 08:18:00;;;;;;;6.38;3.90;;;;;;;22.60;42.06;101067.47;4203358;28;20098;-72
2022/03/19 08:20:02;;;;;;;6.57;3.95;;;;;;;22.63;42.00;101066.88;4202584;28;20032;-69
2022/03/19 08:22:03;;;;;;;4.55;3.40;;;;;;;22.62;42.35;101070.78;4199715;28;20087;-71
2022/03/19 08:24:06;;;;;;;7.10;3.83;;;;;;;22.61;42.11;101066.34;4201355;28;20062;-71
2022/03/19 08:26:28;;;;;;;7.00;3.92;;;;;;;22.64;42.31;101062.97;4201000;28;20041;-71
2022/03/19 08:28:29;;;;;;;4.85;3.85;;;;;;;22.64;42.09;101059.38;4198152;28;20134;-69
2022/03/19 08:30:31;;;;;;;3.92;3.15;;;;;;;22.65;42.33;101042.31;4199168;28;20618;-71
2022/03/19 08:32:35;;;;;;;5.45;3.33;;;;;;;22.64;41.93;101051.81;4199156;28;20040;-71
2022/03/19 08:34:37;;;;;;;5.13;3.40;;;;;;;22.62;42.09;101047.66;4199664;28;20070;-71
2022/03/19 08:36:38;;;;;;;4.68;3.15;;;;;;;22.63;42.23;101038.97;4201708;28;20036;-72
2022/03/19 08:41:03;;;;;;;3.97;3.40;;;;;;;22.62;42.01;101039.28;4216575;28;20069;-72
2022/03/19 08:43:07;;;;;;;;;;;;;;;22.62;42.36;101028.13;4196299;28;20044;-71
2022/03/19 08:45:09;;;;;;;3.47;3.13;;;;;;;22.68;42.06;101025.03;4198249;28;19920;-72
2022/03/19 08:47:16;;;;;;;5.22;3.40;;;;;;;22.67;41.85;101026.13;4203786;28;20044;-71
2022/03/19 08:49:18;;;;;;;7.38;3.95;;;;;;;22.67;42.20;101022.50;4198761;28;20094;-71
2022/03/19 08:51:40;;;;;;;4.50;3.45;;;;;;;22.65;41.86;101020.00;4197118;28;20040;-71
2022/03/19 08:53:42;;;;;;;5.00;3.08;;;;;;;22.65;42.21;101014.44;4199023;28;20044;-70
2022/03/19 08:55:45;;;;;;;5.68;3.10;;;;;;;22.62;41.94;101006.63;4198811;28;20537;-70
2022/03/19 08:57:50;;;;;;;3.65;3.10;;;;;;;22.65;42.27;101019.19;4198427;28;20090;-70
2022/03/19 08:59:51;;;;;;;6.05;2.65;;;;;;;22.63;41.67;101022.25;4198207;28;20037;-71
2022/03/19 09:01:53;;;;;;;3.53;3.05;;;;;;;22.63;42.09;101022.25;4197837;28;20541;-70
2022/03/19 09:03:55;;;;;;;4.97;2.97;;;;;;;22.63;41.97;101027.81;4197721;28;20033;-71
2022/03/19 09:05:59;;;;;;;5.70;3.00;;;;;;;22.65;42.29;101035.91;4196180;28;20058;-71
2022/03/19 09:08:00;;;;;;;5.63;3.50;;;;;;;22.64;42.16;101032.31;4198643;28;20090;-71
2022/03/19 09:10:02;;;;;;;3.90;3.15;;;;;;;22.64;41.74;101040.66;4198484;28;20078;-70
2022/03/19 09:12:04;;;;;;;6.30;3.28;;;;;;;22.64;41.92;101045.41;4198192;28;20361;-70
2022/03/19 09:14:07;;;;;;;5.43;2.85;;;;;;;22.65;42.19;101036.75;4198308;28;20131;-70
2022/03/19 09:16:08;;;;;;;5.43;2.85;;;;;;;22.65;41.96;101050.69;4198127;28;20086;-71
2022/03/19 09:18:10;;;;;;;4.13;3.15;;;;;;;22.65;42.12;101042.31;4197276;28;20094;-71
2022/03/19 09:20:11;;;;;;;4.45;2.60;;;;;;;22.64;42.29;101051.81;4197805;28;20431;-71
2022/03/19 09:22:13;;;;;;;5.28;2.70;;;;;;;22.64;42.12;101040.66;4198158;28;20434;-71
2022/03/19 09:24:15;;;;;;;3.85;2.85;;;;;;;22.67;41.66;101039.25;4197990;28;20037;-71
2022/03/19 09:26:18;;;;;;;3.13;2.83;;;;;;;22.65;42.25;101036.75;4198506;28;20094;-71
2022/03/19 09:28:19;;;;;;;3.10;2.70;;;;;;;22.65;41.70;101031.16;4198263;28;20048;-71
2022/03/19 09:30:20;;;;;;;6.00;2.58;;;;;;;22.66;42.11;101029.22;4198435;28;20044;-71
2022/03/19 09:32:22;;;;;;;5.32;3.17;;;;;;;22.65;41.92;101030.34;4198051;28;20037;-71
2022/03/19 09:34:23;;;;;;;4.00;3.08;;;;;;;22.65;42.11;101025.59;4198479;28;20048;-71
2022/03/19 09:36:25;;;;;;;3.78;2.78;;;;;;;22.65;42.25;101020.00;4198223;28;20094;-70
2022/03/19 09:38:29;;;;;;;4.53;2.72;;;;;;;22.66;42.06;101027.25;4198185;28;20040;-71
2022/03/19 09:40:31;;;;;;;3.85;2.60;;;;;;;22.64;41.77;101015.56;4198667;28;20032;-71
2022/03/19 09:42:35;;;;;;;3.88;2.55;;;;;;;22.66;42.11;101026.41;4197886;28;20036;-71